aviador You're here:

OEDF Decoded Metar

DAMMAM in SAUDI ARABIA
Report Time2018-05-20 19:00:00
UTC Time2018-05-20 19:37:56
Flight Rules vfr VFR
Wind200° at 05 kt
W.Decomp.*RWY 16: 3.9 kt HW 3.1 kt RCW
W.Rank200° ranks 24
Current wind is below 200° avg. (5.6)
Visibility9999 m
Phenomena:N/A
Clouds:N/A
Expected CloudBase > 9,200 ft AGL from Temp-Dew spread
CeilingNone
Temp28°C (ISA +13)
Dew Point05°C (23% RH)
Heat Index26.8°C
AAT25.1°C
QNH1008 hPa
Density Alt1,873 ft
Elevation72 ft
Report Wrong Elevation
Raw Report
METAR OEDF 201900Z 20005KT CAVOK 28/05 Q1008 NOSIG=

Extra information for OEDF:More info

Metar Taf Metar & Taf Last 4 Metars F.Rules Stats Wind Profile Meteogram Temp Stats Airport Information Weather charts Add Link Nearby VenuesMetar ALERT Operation Metar Decoded Social comments